createdAt,value
2019-03-23T00:00:33.859Z,28.83
2019-03-23T00:01:16.349Z,28.93
2019-03-23T00:01:54.232Z,29.09
2019-03-23T00:02:30.699Z,29.24
2019-03-23T00:03:07.815Z,29.35
2019-03-23T00:03:45.039Z,29.44
2019-03-23T00:04:25.431Z,29.55
2019-03-23T00:05:02.674Z,29.61
2019-03-23T00:05:39.469Z,29.63
2019-03-23T00:06:16.526Z,29.62
2019-03-23T00:06:53.503Z,29.62
2019-03-23T00:07:30.684Z,29.65
2019-03-23T00:08:07.958Z,29.68
2019-03-23T00:08:45.124Z,29.68
2019-03-23T00:09:21.783Z,29.71
2019-03-23T00:09:58.849Z,29.72
2019-03-23T00:10:36.111Z,29.72
2019-03-23T00:11:12.652Z,29.72
2019-03-23T00:11:50.005Z,29.68
2019-03-23T00:12:26.678Z,29.69
2019-03-23T00:13:03.246Z,29.67
2019-03-23T00:13:40.814Z,29.65
2019-03-23T00:14:17.749Z,29.65
2019-03-23T00:14:54.793Z,29.65
2019-03-23T00:15:31.440Z,29.64
2019-03-23T00:16:08.358Z,29.65
2019-03-23T00:16:45.512Z,29.66
2019-03-23T00:17:22.147Z,29.66
2019-03-23T00:17:59.081Z,29.66
2019-03-23T00:18:36.453Z,29.66
2019-03-23T00:19:13.003Z,29.67
2019-03-23T00:19:49.598Z,29.67
2019-03-23T00:20:26.566Z,29.69
2019-03-23T00:21:03.238Z,29.69
2019-03-23T00:21:40.177Z,29.74
2019-03-23T00:22:17.254Z,29.74
2019-03-23T00:22:54.622Z,29.72
2019-03-23T00:23:31.171Z,29.72
2019-03-23T00:24:08.342Z,29.82
2019-03-23T00:24:45.496Z,29.82
2019-03-23T00:25:22.807Z,29.85
2019-03-23T00:25:59.846Z,29.88
2019-03-23T00:26:36.953Z,29.88
2019-03-23T00:27:13.648Z,29.88
2019-03-23T00:27:50.346Z,29.96
2019-03-23T00:28:27.503Z,29.99
2019-03-23T00:29:04.210Z,30.02
2019-03-23T00:29:40.833Z,30.08
2019-03-23T00:30:17.887Z,30.09
2019-03-23T00:30:54.491Z,30.09
2019-03-23T00:31:31.292Z,30.14
2019-03-23T00:32:08.494Z,30.14
2019-03-23T00:32:45.450Z,30.16
2019-03-23T00:33:22.062Z,30.10
2019-03-23T00:33:59.160Z,30.26
2019-03-23T00:34:36.173Z,30.26
2019-03-23T00:35:12.744Z,30.34
2019-03-23T00:35:49.397Z,30.34
2019-03-23T00:36:26.677Z,30.38
2019-03-23T00:37:03.236Z,30.41
2019-03-23T00:37:40.267Z,30.48
2019-03-23T00:38:17.419Z,30.48
2019-03-23T00:38:54.336Z,30.57
2019-03-23T00:39:30.989Z,30.63
2019-03-23T00:40:08.386Z,30.63
2019-03-23T00:40:45.270Z,30.71
2019-03-23T00:41:21.860Z,30.81
2019-03-23T00:41:58.729Z,30.82
2019-03-23T00:42:35.937Z,30.84
2019-03-23T00:43:12.474Z,30.84
2019-03-23T00:43:49.550Z,30.98
2019-03-23T00:44:26.342Z,30.98
2019-03-23T00:45:03.050Z,31.03
2019-03-23T00:45:40.145Z,31.12
2019-03-23T00:46:17.123Z,31.19
2019-03-23T00:46:53.601Z,31.19
2019-03-23T00:47:30.603Z,31.20
2019-03-23T00:48:07.668Z,31.24
2019-03-23T00:48:44.140Z,31.27
2019-03-23T00:49:21.177Z,31.27
2019-03-23T00:49:58.274Z,31.33
2019-03-23T00:50:35.350Z,31.33
2019-03-23T00:51:12.330Z,31.38
2019-03-23T00:51:49.142Z,31.41
2019-03-23T00:52:26.459Z,31.45
2019-03-23T00:53:02.939Z,31.49
2019-03-23T00:53:40.206Z,31.51
2019-03-23T00:54:17.367Z,31.55
2019-03-23T00:54:54.558Z,31.59
2019-03-23T00:55:31.491Z,31.61
2019-03-23T00:56:08.671Z,31.65
2019-03-23T00:56:45.697Z,31.65
2019-03-23T00:57:22.727Z,31.72
2019-03-23T00:58:00.081Z,31.75
2019-03-23T00:58:37.331Z,31.79
2019-03-23T00:59:14.199Z,31.82
2019-03-23T00:59:51.298Z,31.86
2019-03-23T01:00:27.905Z,31.89
2019-03-23T01:01:04.585Z,31.92
2019-03-23T01:01:41.580Z,31.96
2019-03-23T01:02:21.334Z,32.01
2019-03-23T01:02:58.630Z,32.07
2019-03-23T01:03:35.744Z,32.12
2019-03-23T01:04:12.706Z,32.18
2019-03-23T01:04:49.478Z,32.23
2019-03-23T01:05:26.032Z,32.27
2019-03-23T01:06:03.593Z,32.32
2019-03-23T01:06:40.044Z,32.38
2019-03-23T01:07:16.744Z,32.44
2019-03-23T01:07:53.691Z,32.50
2019-03-23T01:08:30.705Z,32.54
2019-03-23T01:09:08.980Z,32.59
2019-03-23T01:10:38.553Z,32.73
2019-03-23T01:11:15.199Z,32.74
2019-03-23T01:11:52.374Z,32.79
2019-03-23T01:12:29.446Z,32.84
2019-03-23T01:13:05.932Z,32.88
2019-03-23T01:13:43.062Z,32.94
2019-03-23T01:14:19.987Z,32.98
2019-03-23T01:14:57.144Z,33.02
2019-03-23T01:15:34.271Z,33.08
2019-03-23T01:16:11.535Z,33.12
2019-03-23T01:16:48.748Z,33.17
2019-03-23T01:17:25.915Z,33.21
2019-03-23T01:18:02.888Z,33.23
2019-03-23T01:18:39.455Z,33.25
2019-03-23T01:19:16.017Z,33.25
2019-03-23T01:19:53.144Z,33.30
2019-03-23T01:20:29.711Z,33.33
2019-03-23T01:21:06.248Z,33.36
2019-03-23T01:21:43.651Z,33.40
2019-03-23T01:22:20.098Z,33.42
2019-03-23T01:22:56.689Z,33.46
2019-03-23T01:23:33.916Z,33.48
2019-03-23T01:24:11.400Z,33.53
2019-03-23T01:24:47.963Z,33.59
2019-03-23T01:25:24.885Z,33.62
2019-03-23T01:26:02.238Z,33.65
2019-03-23T01:26:39.688Z,33.66
2019-03-23T01:27:16.379Z,33.68
2019-03-23T01:27:53.621Z,33.70
2019-03-23T01:28:30.917Z,33.74
2019-03-23T01:29:07.590Z,33.78
2019-03-23T01:29:44.440Z,33.83
2019-03-23T01:30:21.604Z,33.86
2019-03-23T01:30:58.264Z,33.90
2019-03-23T01:31:35.065Z,33.94
2019-03-23T01:32:12.076Z,33.99
2019-03-23T01:32:48.536Z,34.03
2019-03-23T01:33:25.451Z,34.08
2019-03-23T01:34:02.544Z,34.12
2019-03-23T01:34:39.372Z,34.16
2019-03-23T01:35:16.543Z,34.20
2019-03-23T01:35:53.448Z,34.23
2019-03-23T01:36:30.738Z,34.28
2019-03-23T01:37:07.206Z,34.32
2019-03-23T01:37:44.586Z,34.35
2019-03-23T01:38:21.652Z,34.38
2019-03-23T01:38:58.898Z,34.44
2019-03-23T01:39:35.967Z,34.48
2019-03-23T01:40:13.358Z,34.50
2019-03-23T01:40:49.894Z,34.52
2019-03-23T01:41:26.768Z,34.54
2019-03-23T01:42:03.868Z,34.57
2019-03-23T01:42:40.821Z,34.61
2019-03-23T01:43:17.371Z,34.63
2019-03-23T01:43:54.546Z,34.64
2019-03-23T01:44:31.907Z,34.65
2019-03-23T01:45:08.937Z,34.67
2019-03-23T01:45:45.739Z,34.69
2019-03-23T01:46:23.048Z,34.72
2019-03-23T01:46:59.564Z,34.74
2019-03-23T01:47:36.333Z,34.75
2019-03-23T01:48:13.619Z,34.81
2019-03-23T01:48:50.214Z,34.82
2019-03-23T01:49:27.066Z,34.84
2019-03-23T01:50:04.397Z,34.87
2019-03-23T01:50:41.462Z,34.91
2019-03-23T01:51:18.028Z,34.92
2019-03-23T01:51:55.113Z,34.93
2019-03-23T01:52:32.280Z,34.96
2019-03-23T01:53:09.766Z,34.96
2019-03-23T01:53:46.715Z,34.99
2019-03-23T01:54:25.923Z,35.02
2019-03-23T01:55:03.473Z,35.07
2019-03-23T01:55:40.077Z,35.14
2019-03-23T01:56:16.824Z,35.17
2019-03-23T01:56:53.704Z,35.20
2019-03-23T01:57:30.242Z,35.23
2019-03-23T01:58:07.219Z,35.28
2019-03-23T01:58:44.890Z,35.31
2019-03-23T01:59:22.307Z,35.34
2019-03-23T01:59:58.856Z,35.38
2019-03-23T02:00:36.431Z,35.41
2019-03-23T02:01:13.714Z,35.45
2019-03-23T02:01:50.320Z,35.49
2019-03-23T02:02:27.243Z,35.51
2019-03-23T02:03:04.527Z,35.55
2019-03-23T02:03:41.098Z,35.58
2019-03-23T02:04:17.896Z,35.64
2019-03-23T02:04:55.079Z,35.66
2019-03-23T02:05:32.457Z,35.71
2019-03-23T02:06:09.140Z,35.72
2019-03-23T02:06:46.114Z,35.73
2019-03-23T02:07:23.282Z,35.74
2019-03-23T02:07:59.865Z,35.78
2019-03-23T02:08:37.052Z,35.78
2019-03-23T02:09:14.057Z,35.80
2019-03-23T02:09:50.608Z,35.81
2019-03-23T02:10:27.687Z,35.83
2019-03-23T02:11:08.009Z,35.83
2019-03-23T02:11:45.334Z,35.85
2019-03-23T02:12:22.831Z,35.85
2019-03-23T02:12:59.556Z,35.88
2019-03-23T02:13:36.222Z,35.90
2019-03-23T02:14:13.442Z,35.93
2019-03-23T02:14:50.024Z,35.94
2019-03-23T02:15:27.158Z,35.95
2019-03-23T02:16:04.703Z,35.94
2019-03-23T02:16:41.293Z,35.93
2019-03-23T02:17:18.172Z,35.93
2019-03-23T02:17:55.484Z,35.98
2019-03-23T02:18:32.916Z,35.98
2019-03-23T02:19:09.500Z,36.00
2019-03-23T02:19:46.687Z,36.03
2019-03-23T02:20:23.635Z,36.03
2019-03-23T02:21:00.280Z,36.05
2019-03-23T02:21:37.268Z,36.09
2019-03-23T02:22:14.333Z,36.10
2019-03-23T02:22:50.852Z,36.12
2019-03-23T02:23:28.025Z,36.17
2019-03-23T02:24:05.141Z,36.17
2019-03-23T02:24:42.108Z,36.19
2019-03-23T02:25:19.074Z,36.17
2019-03-23T02:25:56.143Z,36.23
2019-03-23T02:26:33.521Z,36.27
2019-03-23T02:27:10.403Z,36.25
2019-03-23T02:27:47.731Z,36.29
2019-03-23T02:28:24.933Z,36.31
2019-03-23T02:29:02.035Z,36.30
2019-03-23T02:29:39.447Z,36.38
2019-03-23T02:30:16.154Z,36.41
2019-03-23T02:30:52.585Z,36.42
2019-03-23T02:31:29.660Z,36.42
2019-03-23T02:32:06.883Z,36.42
2019-03-23T02:32:43.393Z,36.41
2019-03-23T02:33:20.236Z,36.41
2019-03-23T02:33:57.406Z,36.47
2019-03-23T02:34:34.180Z,36.52
2019-03-23T02:35:11.020Z,36.54
2019-03-23T02:35:48.089Z,36.60
2019-03-23T02:36:24.631Z,36.63
2019-03-23T02:37:01.335Z,36.70
2019-03-23T02:37:38.559Z,36.72
2019-03-23T02:38:15.564Z,36.73
2019-03-23T02:38:52.187Z,36.74
2019-03-23T02:39:29.090Z,36.77
2019-03-23T02:40:06.759Z,36.79
2019-03-23T02:40:43.259Z,36.85
2019-03-23T02:41:20.151Z,36.80
2019-03-23T02:41:57.460Z,36.84
2019-03-23T02:42:34.393Z,36.87
2019-03-23T02:43:11.410Z,36.91
2019-03-23T02:43:48.297Z,36.96
2019-03-23T02:44:25.453Z,36.98
2019-03-23T02:45:02.612Z,36.97
2019-03-23T02:45:39.636Z,37.00
2019-03-23T02:46:16.238Z,37.02
2019-03-23T02:46:52.682Z,37.04
2019-03-23T02:47:29.855Z,37.10
2019-03-23T02:48:07.008Z,37.09
2019-03-23T02:48:43.927Z,37.11
2019-03-23T02:49:20.967Z,37.15
2019-03-23T02:49:57.995Z,37.22
2019-03-23T02:50:34.549Z,37.21
2019-03-23T02:51:11.245Z,37.21
2019-03-23T02:51:48.284Z,37.10
2019-03-23T02:52:25.514Z,36.84
2019-03-23T02:53:02.125Z,36.62
2019-03-23T02:53:39.423Z,36.44
2019-03-23T02:54:16.919Z,36.25
2019-03-23T02:54:54.211Z,36.10
2019-03-23T02:55:31.351Z,35.96
2019-03-23T02:56:08.350Z,35.86
2019-03-23T02:56:46.061Z,35.78
2019-03-23T02:57:22.551Z,35.67
2019-03-23T02:57:59.996Z,35.66
2019-03-23T02:58:37.098Z,35.72
2019-03-23T02:59:13.700Z,35.71
2019-03-23T02:59:50.857Z,35.80
2019-03-23T03:00:28.052Z,35.95
2019-03-23T03:01:05.034Z,36.01
2019-03-23T03:01:41.998Z,35.89
2019-03-23T03:02:19.282Z,35.84
2019-03-23T03:02:56.441Z,35.78
2019-03-23T03:03:33.143Z,35.71
2019-03-23T03:04:10.322Z,35.65
2019-03-23T03:04:47.485Z,35.57
2019-03-23T03:05:23.951Z,35.53
2019-03-23T03:06:00.792Z,35.56
2019-03-23T03:06:38.058Z,35.72
2019-03-23T03:07:15.280Z,35.83
2019-03-23T03:07:51.872Z,35.94
2019-03-23T03:08:29.008Z,35.93
2019-03-23T03:09:05.823Z,35.80
2019-03-23T03:09:42.770Z,35.72
2019-03-23T03:10:38.536Z,35.86
2019-03-23T03:11:15.264Z,36.02
2019-03-23T03:11:51.823Z,36.19
2019-03-23T03:12:28.996Z,36.16
2019-03-23T03:13:05.793Z,36.30
2019-03-23T03:13:42.695Z,36.42
2019-03-23T03:14:20.025Z,36.55
2019-03-23T03:14:57.596Z,36.65
2019-03-23T03:15:34.415Z,36.76
2019-03-23T03:16:11.594Z,36.89
2019-03-23T03:16:48.734Z,36.98
2019-03-23T03:17:25.471Z,36.93
2019-03-23T03:18:02.561Z,36.96
2019-03-23T03:18:39.856Z,36.85
2019-03-23T03:19:16.454Z,36.77
2019-03-23T03:19:53.502Z,36.67
2019-03-23T03:20:30.701Z,36.61
2019-03-23T03:21:07.660Z,36.61
2019-03-23T03:21:44.475Z,36.52
2019-03-23T03:22:21.657Z,36.42
2019-03-23T03:22:58.475Z,36.35
2019-03-23T03:23:35.067Z,36.27
2019-03-23T03:24:12.173Z,36.19
2019-03-23T03:24:50.159Z,36.17
2019-03-23T03:25:26.845Z,36.13
2019-03-23T03:26:03.649Z,36.11
2019-03-23T03:26:40.912Z,36.09
2019-03-23T03:27:18.256Z,36.06
2019-03-23T03:27:55.080Z,36.12
2019-03-23T03:28:32.500Z,36.33
2019-03-23T03:29:11.271Z,36.48
2019-03-23T03:29:49.660Z,36.60
2019-03-23T03:30:26.295Z,36.64
2019-03-23T03:31:03.630Z,36.71
2019-03-23T03:31:40.871Z,36.69
2019-03-23T03:32:17.352Z,36.61
2019-03-23T03:32:54.140Z,36.52
2019-03-23T03:33:31.507Z,36.43
2019-03-23T03:34:08.943Z,36.35
2019-03-23T03:34:45.613Z,36.36
2019-03-23T03:35:22.646Z,36.31
2019-03-23T03:35:59.432Z,36.25
2019-03-23T03:36:36.009Z,36.26
2019-03-23T03:37:13.165Z,36.15
2019-03-23T03:37:56.354Z,36.20
2019-03-23T03:38:28.964Z,36.30
2019-03-23T03:39:06.764Z,36.34
2019-03-23T03:39:43.860Z,36.48
2019-03-23T03:40:21.060Z,36.53
2019-03-23T03:40:58.051Z,36.58
2019-03-23T03:41:35.098Z,36.58
2019-03-23T03:42:12.489Z,36.47
2019-03-23T03:42:48.965Z,36.34
2019-03-23T03:43:25.773Z,36.24
2019-03-23T03:44:03.000Z,36.15
2019-03-23T03:44:40.456Z,36.09
2019-03-23T03:45:23.571Z,36.04
2019-03-23T03:46:00.779Z,35.99
2019-03-23T03:46:37.594Z,35.92
2019-03-23T03:47:14.876Z,35.86
2019-03-23T03:47:51.833Z,35.79
2019-03-23T03:48:28.842Z,35.70
2019-03-23T03:49:12.187Z,35.68
2019-03-23T03:49:44.806Z,35.60
2019-03-23T03:50:21.901Z,35.56
2019-03-23T03:50:58.922Z,35.48
2019-03-23T03:51:36.194Z,35.43
2019-03-23T03:52:13.159Z,35.38
2019-03-23T03:52:50.619Z,35.34
2019-03-23T03:53:27.313Z,35.31
2019-03-23T03:54:04.575Z,35.28
2019-03-23T03:54:41.825Z,35.26
2019-03-23T03:55:18.433Z,35.19
2019-03-23T03:55:55.710Z,35.14
2019-03-23T03:56:32.718Z,35.10
2019-03-23T03:57:10.153Z,35.05
2019-03-23T03:57:46.646Z,34.98
2019-03-23T03:58:23.809Z,34.94
2019-03-23T03:59:01.065Z,34.89
2019-03-23T03:59:38.499Z,34.84
2019-03-23T04:00:15.801Z,34.76
2019-03-23T04:00:52.920Z,34.74
2019-03-23T04:01:29.374Z,34.69
2019-03-23T04:02:05.918Z,34.62
2019-03-23T04:02:43.173Z,34.56
2019-03-23T04:03:19.623Z,34.51
2019-03-23T04:03:56.542Z,34.46
2019-03-23T04:04:33.847Z,34.44
2019-03-23T04:05:10.553Z,34.39
2019-03-23T04:05:47.325Z,34.38
2019-03-23T04:06:24.629Z,34.38
2019-03-23T04:07:01.688Z,34.35
2019-03-23T04:07:38.336Z,34.32
2019-03-23T04:08:15.243Z,34.31
2019-03-23T04:08:52.462Z,34.30
2019-03-23T04:09:28.940Z,34.28
2019-03-23T04:10:06.250Z,34.28
2019-03-23T04:10:43.322Z,34.29
2019-03-23T04:11:20.320Z,34.28
2019-03-23T04:11:57.323Z,34.27
2019-03-23T04:12:34.598Z,34.26
2019-03-23T04:13:11.490Z,34.24
2019-03-23T04:13:48.124Z,34.21
2019-03-23T04:14:25.348Z,34.20
2019-03-23T04:15:02.539Z,34.19
2019-03-23T04:15:39.117Z,34.17
2019-03-23T04:16:16.521Z,34.17
2019-03-23T04:16:53.777Z,34.18
2019-03-23T04:17:30.823Z,34.18
2019-03-23T04:18:07.949Z,34.19
2019-03-23T04:18:44.452Z,34.19
2019-03-23T04:19:21.565Z,34.19
2019-03-23T04:19:58.480Z,34.21
2019-03-23T04:20:35.874Z,34.21
2019-03-23T04:21:13.035Z,34.24
2019-03-23T04:21:49.652Z,34.24
2019-03-23T04:22:26.853Z,34.27
2019-03-23T04:23:04.033Z,34.32
2019-03-23T04:23:40.617Z,34.34
2019-03-23T04:24:17.664Z,34.49
2019-03-23T04:24:54.704Z,34.67
2019-03-23T04:25:35.013Z,34.84
2019-03-23T04:26:11.838Z,34.96
2019-03-23T04:26:48.772Z,35.04
2019-03-23T04:27:26.154Z,35.03
2019-03-23T04:28:03.449Z,35.04
2019-03-23T04:28:40.639Z,35.02
2019-03-23T04:29:17.623Z,35.05
2019-03-23T04:29:54.940Z,35.03
2019-03-23T04:30:32.771Z,35.06
2019-03-23T04:31:09.343Z,35.06
2019-03-23T04:31:45.828Z,35.06
2019-03-23T04:32:23.258Z,35.06
2019-03-23T04:32:59.768Z,35.06
2019-03-23T04:33:36.751Z,35.00
2019-03-23T04:34:13.322Z,35.00
2019-03-23T04:34:50.000Z,34.98
2019-03-23T04:35:27.367Z,34.97
2019-03-23T04:36:04.654Z,34.99
2019-03-23T04:36:45.011Z,35.04
2019-03-23T04:37:22.067Z,35.20
2019-03-23T04:37:59.197Z,35.35
2019-03-23T04:38:36.451Z,35.52
2019-03-23T04:39:13.180Z,35.58
2019-03-23T04:39:49.795Z,35.71
2019-03-23T04:40:26.893Z,35.82
2019-03-23T04:41:04.660Z,35.90
2019-03-23T04:41:41.127Z,36.01
2019-03-23T04:42:20.068Z,36.12
2019-03-23T04:42:57.468Z,36.22
2019-03-23T04:43:34.234Z,36.31
2019-03-23T04:44:11.126Z,36.38
2019-03-23T04:44:47.816Z,36.51
2019-03-23T04:45:24.267Z,36.60
2019-03-23T04:46:00.791Z,36.68
2019-03-23T04:46:37.637Z,36.77
2019-03-23T04:47:15.450Z,36.88
2019-03-23T04:47:51.938Z,36.91
2019-03-23T04:48:29.107Z,37.02
2019-03-23T04:49:06.213Z,37.11
2019-03-23T04:49:43.433Z,37.20
2019-03-23T04:50:20.381Z,37.26
2019-03-23T04:50:57.406Z,37.34
2019-03-23T04:51:33.892Z,37.43
2019-03-23T04:52:10.691Z,37.48
2019-03-23T04:52:47.750Z,37.50
2019-03-23T04:53:25.151Z,37.51
2019-03-23T04:54:01.804Z,37.53
2019-03-23T04:54:38.996Z,37.57
2019-03-23T04:55:16.477Z,37.62
2019-03-23T04:55:53.381Z,37.67
2019-03-23T04:56:30.517Z,37.75
2019-03-23T04:57:07.737Z,37.80
2019-03-23T04:57:44.522Z,37.85
2019-03-23T04:58:21.122Z,37.88
2019-03-23T04:58:59.069Z,37.87
2019-03-23T04:59:36.513Z,37.90
2019-03-23T05:00:14.704Z,37.93
2019-03-23T05:00:51.612Z,37.92
2019-03-23T05:01:28.762Z,37.84
2019-03-23T05:02:06.029Z,37.73
2019-03-23T05:02:44.073Z,37.61
2019-03-23T05:03:20.978Z,37.54
2019-03-23T05:03:58.263Z,37.44
2019-03-23T05:04:34.869Z,37.36
2019-03-23T05:05:12.092Z,37.26
2019-03-23T05:05:49.369Z,37.17
2019-03-23T05:06:25.943Z,37.09
2019-03-23T05:07:02.551Z,36.98
2019-03-23T05:07:39.110Z,36.78
2019-03-23T05:08:15.784Z,36.69
2019-03-23T05:08:52.647Z,36.57
2019-03-23T05:09:29.834Z,36.52
2019-03-23T05:10:06.989Z,36.54
2019-03-23T05:10:44.405Z,36.48
2019-03-23T05:11:21.815Z,36.42
2019-03-23T05:11:58.814Z,36.35
2019-03-23T05:12:36.009Z,36.22
2019-03-23T05:13:12.795Z,36.08
2019-03-23T05:13:50.261Z,36.04
2019-03-23T05:14:27.730Z,35.99
2019-03-23T05:15:04.182Z,36.10
2019-03-23T05:15:41.278Z,36.15
2019-03-23T05:16:18.460Z,36.26
2019-03-23T05:16:55.778Z,36.38
2019-03-23T05:17:32.581Z,36.44
2019-03-23T05:18:09.729Z,36.53
2019-03-23T05:18:46.328Z,36.61
2019-03-23T05:19:23.094Z,36.67
2019-03-23T05:20:00.340Z,36.78
2019-03-23T05:20:37.112Z,36.88
2019-03-23T05:21:14.652Z,36.93
2019-03-23T05:21:51.930Z,37.04
2019-03-23T05:22:29.080Z,37.13
2019-03-23T05:23:05.574Z,37.17
2019-03-23T05:23:42.913Z,37.21
2019-03-23T05:24:20.122Z,37.28
2019-03-23T05:24:56.683Z,37.29
2019-03-23T05:25:33.698Z,37.38
2019-03-23T05:26:10.902Z,37.45
2019-03-23T05:26:48.297Z,37.51
2019-03-23T05:27:25.585Z,37.58
2019-03-23T05:28:02.941Z,37.66
2019-03-23T05:28:40.116Z,37.74
2019-03-23T05:29:17.462Z,37.80
2019-03-23T05:29:53.919Z,37.83
2019-03-23T05:30:31.013Z,37.90
2019-03-23T05:31:08.480Z,37.97
2019-03-23T05:31:45.059Z,38.06
2019-03-23T05:32:22.871Z,38.13
2019-03-23T05:33:00.303Z,38.17
2019-03-23T05:33:37.264Z,38.23
2019-03-23T05:34:14.162Z,38.30
2019-03-23T05:34:51.422Z,38.37
2019-03-23T05:35:28.679Z,38.43
2019-03-23T05:36:05.259Z,38.48
2019-03-23T05:36:42.395Z,38.45
2019-03-23T05:37:19.501Z,38.38
2019-03-23T05:37:56.122Z,38.24
2019-03-23T05:38:43.641Z,38.17
2019-03-23T05:39:12.117Z,38.13
2019-03-23T05:39:49.090Z,37.97
2019-03-23T05:40:25.730Z,37.89
2019-03-23T05:41:02.714Z,37.82
2019-03-23T05:41:42.396Z,37.68
2019-03-23T05:42:19.591Z,37.50
2019-03-23T05:42:56.093Z,37.42
2019-03-23T05:43:33.242Z,37.34
2019-03-23T05:44:09.765Z,37.25
2019-03-23T05:44:46.323Z,37.17
2019-03-23T05:45:23.554Z,37.12
2019-03-23T05:46:00.700Z,37.01
2019-03-23T05:46:37.292Z,36.93
2019-03-23T05:47:14.200Z,36.86
2019-03-23T05:47:52.521Z,36.80
2019-03-23T05:48:29.869Z,36.75
2019-03-23T05:49:07.172Z,36.69
2019-03-23T05:49:44.127Z,36.72
2019-03-23T05:50:21.200Z,36.78
2019-03-23T05:50:58.183Z,36.91
2019-03-23T05:51:34.664Z,37.04
2019-03-23T05:52:11.683Z,37.16
2019-03-23T05:52:48.247Z,37.26
2019-03-23T05:53:25.010Z,37.35
2019-03-23T05:54:02.167Z,37.45
2019-03-23T05:54:39.392Z,37.54
2019-03-23T05:55:16.099Z,37.63
2019-03-23T05:55:53.088Z,37.62
2019-03-23T05:56:30.117Z,37.52
2019-03-23T05:57:08.530Z,37.44
2019-03-23T05:57:45.582Z,37.37
2019-03-23T05:58:22.853Z,37.33
2019-03-23T05:59:00.530Z,37.45
2019-03-23T05:59:37.100Z,37.56
2019-03-23T06:00:17.254Z,37.65
2019-03-23T06:00:54.101Z,37.73
2019-03-23T06:01:31.311Z,37.82
2019-03-23T06:02:08.490Z,37.92
2019-03-23T06:02:45.468Z,38.04
2019-03-23T06:03:22.529Z,38.11
2019-03-23T06:03:59.007Z,38.18
2019-03-23T06:04:35.843Z,38.17
2019-03-23T06:05:12.966Z,38.07
2019-03-23T06:05:50.273Z,37.91
2019-03-23T06:06:26.905Z,37.77
2019-03-23T06:07:04.047Z,37.65
2019-03-23T06:07:40.566Z,37.56
2019-03-23T06:08:18.132Z,37.46
2019-03-23T06:08:55.656Z,37.31
2019-03-23T06:09:33.016Z,37.23
2019-03-23T06:10:09.744Z,37.14
2019-03-23T06:10:46.756Z,37.05
2019-03-23T06:11:24.284Z,36.97
2019-03-23T06:12:01.575Z,36.91
2019-03-23T06:12:38.739Z,36.85
2019-03-23T06:13:16.015Z,36.80
2019-03-23T06:13:53.173Z,36.82
2019-03-23T06:14:30.669Z,36.79
2019-03-23T06:15:07.572Z,36.82
2019-03-23T06:15:44.719Z,36.92
2019-03-23T06:16:23.051Z,36.96
2019-03-23T06:16:59.688Z,36.82
2019-03-23T06:17:36.264Z,36.82
2019-03-23T06:18:13.606Z,36.92
2019-03-23T06:18:50.080Z,36.98
2019-03-23T06:19:27.121Z,37.08
2019-03-23T06:20:04.790Z,37.17
2019-03-23T06:20:42.214Z,37.25
2019-03-23T06:21:18.757Z,37.35
2019-03-23T06:21:55.874Z,37.43
2019-03-23T06:22:32.996Z,37.49
2019-03-23T06:23:09.631Z,37.52
2019-03-23T06:23:46.814Z,37.61
2019-03-23T06:24:24.066Z,37.67
2019-03-23T06:25:00.605Z,37.73
2019-03-23T06:25:38.422Z,37.75
2019-03-23T06:26:15.643Z,37.80
2019-03-23T06:26:53.031Z,37.84
2019-03-23T06:27:30.582Z,37.88
2019-03-23T06:28:07.307Z,37.93
2019-03-23T06:28:44.592Z,37.96
2019-03-23T06:29:21.128Z,38.00
2019-03-23T06:29:58.323Z,38.05
2019-03-23T06:30:35.639Z,38.04
2019-03-23T06:31:12.265Z,38.10
2019-03-23T06:31:48.916Z,38.14
2019-03-23T06:32:25.994Z,38.14
2019-03-23T06:33:03.424Z,38.18
2019-03-23T06:33:40.608Z,38.21
2019-03-23T06:34:17.189Z,38.20
2019-03-23T06:34:54.508Z,38.26
2019-03-23T06:35:31.421Z,38.30
2019-03-23T06:36:08.867Z,38.32
2019-03-23T06:36:45.750Z,38.31
2019-03-23T06:37:22.338Z,38.35
2019-03-23T06:37:58.906Z,38.37
2019-03-23T06:38:35.933Z,38.38
2019-03-23T06:39:12.713Z,38.38
2019-03-23T06:39:49.563Z,38.32
2019-03-23T06:40:26.772Z,38.24
2019-03-23T06:41:04.007Z,38.25
2019-03-23T06:41:44.361Z,38.32
2019-03-23T06:42:21.149Z,38.37
2019-03-23T06:42:59.858Z,38.33
2019-03-23T06:43:37.381Z,38.29
2019-03-23T06:44:14.673Z,38.24
2019-03-23T06:44:51.335Z,38.23
2019-03-23T06:45:28.575Z,38.20
2019-03-23T06:46:05.814Z,38.22
2019-03-23T06:46:42.440Z,38.26
2019-03-23T06:47:19.487Z,38.28
2019-03-23T06:47:56.885Z,38.30
2019-03-23T06:48:33.473Z,38.30
2019-03-23T06:49:10.002Z,38.33
2019-03-23T06:49:46.887Z,38.33
2019-03-23T06:50:25.154Z,38.38
2019-03-23T06:51:03.288Z,38.42
2019-03-23T06:51:40.361Z,38.46
2019-03-23T06:52:17.403Z,38.48
2019-03-23T06:52:54.053Z,38.52
2019-03-23T06:53:30.716Z,38.52
2019-03-23T06:54:07.946Z,38.53
2019-03-23T06:54:45.098Z,38.58
2019-03-23T06:55:21.943Z,38.58
2019-03-23T06:55:59.189Z,38.57
2019-03-23T06:56:36.444Z,38.56
2019-03-23T06:57:12.917Z,38.56
2019-03-23T06:57:49.490Z,38.48
2019-03-23T06:58:26.934Z,38.27
2019-03-23T06:59:03.800Z,38.11
2019-03-23T06:59:41.369Z,37.98
2019-03-23T07:00:19.269Z,37.87
2019-03-23T07:00:56.515Z,37.75
2019-03-23T07:01:33.734Z,37.67
2019-03-23T07:02:10.705Z,37.61
2019-03-23T07:02:48.044Z,37.54
2019-03-23T07:03:24.617Z,37.52
2019-03-23T07:04:01.387Z,37.46
2019-03-23T07:04:38.512Z,37.50
2019-03-23T07:05:15.748Z,37.53
2019-03-23T07:05:52.996Z,37.59
2019-03-23T07:06:30.373Z,37.52
2019-03-23T07:07:07.451Z,37.47
2019-03-23T07:07:44.852Z,37.50
2019-03-23T07:08:31.585Z,37.58
2019-03-23T07:09:00.229Z,37.66
2019-03-23T07:09:37.531Z,37.72
2019-03-23T07:10:14.292Z,37.79
2019-03-23T07:10:50.898Z,37.85
2019-03-23T07:11:28.157Z,37.91
2019-03-23T07:12:04.640Z,37.96
2019-03-23T07:12:41.595Z,38.03
2019-03-23T07:13:18.800Z,38.07
2019-03-23T07:13:55.346Z,38.13
2019-03-23T07:14:32.117Z,38.09
2019-03-23T07:15:19.496Z,38.14
2019-03-23T07:15:49.170Z,38.17
2019-03-23T07:16:26.442Z,38.19
2019-03-23T07:17:02.978Z,38.22
2019-03-23T07:17:40.060Z,38.25
2019-03-23T07:18:17.321Z,38.26
2019-03-23T07:18:54.351Z,38.24
2019-03-23T07:19:31.465Z,38.21
2019-03-23T07:20:09.687Z,38.13
2019-03-23T07:20:46.735Z,38.00
2019-03-23T07:21:23.210Z,37.87
2019-03-23T07:22:00.326Z,37.75
2019-03-23T07:22:37.421Z,37.67
2019-03-23T07:23:15.215Z,37.57
2019-03-23T07:23:52.020Z,37.45
2019-03-23T07:24:29.165Z,37.35
2019-03-23T07:25:06.190Z,37.26
2019-03-23T07:25:42.968Z,37.18
2019-03-23T07:26:19.975Z,37.12
2019-03-23T07:26:56.696Z,37.05
2019-03-23T07:27:33.671Z,36.98
2019-03-23T07:28:10.810Z,36.95
2019-03-23T07:28:47.814Z,36.93
2019-03-23T07:29:24.442Z,36.93
2019-03-23T07:30:01.419Z,37.00
2019-03-23T07:30:38.439Z,37.03
2019-03-23T07:31:14.965Z,37.12
2019-03-23T07:31:52.019Z,37.15
2019-03-23T07:32:28.635Z,37.21
2019-03-23T07:33:05.616Z,37.30
2019-03-23T07:33:42.748Z,37.36
2019-03-23T07:34:19.706Z,37.39
2019-03-23T07:34:56.281Z,37.39
2019-03-23T07:35:33.048Z,37.36
2019-03-23T07:36:10.249Z,37.38
2019-03-23T07:36:47.311Z,37.38
2019-03-23T07:37:24.045Z,37.45
2019-03-23T07:38:01.099Z,37.51
2019-03-23T07:38:37.735Z,37.57
2019-03-23T07:39:14.694Z,37.62
2019-03-23T07:39:51.765Z,37.67
2019-03-23T07:40:29.138Z,37.69
2019-03-23T07:41:05.961Z,37.65
2019-03-23T07:41:42.884Z,37.61
2019-03-23T07:42:20.044Z,37.57
2019-03-23T07:42:56.639Z,37.50
2019-03-23T07:43:33.733Z,37.38
2019-03-23T07:44:11.038Z,37.32
2019-03-23T07:44:47.616Z,37.25
2019-03-23T07:45:24.467Z,37.16
2019-03-23T07:46:01.770Z,37.08
2019-03-23T07:46:39.063Z,36.99
2019-03-23T07:47:15.612Z,36.92
2019-03-23T07:47:52.759Z,36.83
2019-03-23T07:48:29.841Z,36.73
2019-03-23T07:49:06.316Z,36.64
2019-03-23T07:49:43.434Z,36.58
2019-03-23T07:50:20.651Z,36.51
2019-03-23T07:50:57.233Z,36.45
2019-03-23T07:51:33.799Z,36.33
2019-03-23T07:52:10.998Z,36.23
2019-03-23T07:52:47.589Z,36.12
2019-03-23T07:53:24.386Z,36.05
2019-03-23T07:54:02.763Z,36.00
2019-03-23T07:54:39.971Z,35.98
2019-03-23T07:55:16.973Z,35.90
2019-03-23T07:55:54.124Z,35.85
2019-03-23T07:56:31.210Z,35.80
2019-03-23T07:57:08.134Z,35.78
2019-03-23T07:57:45.013Z,35.75
2019-03-23T07:58:21.571Z,35.73
2019-03-23T07:58:58.015Z,35.71